Time;durP1;ratioP1;P1;durP2;ratioP2;P2;SDS_P1;SDS_P2;PMS_P1;PMS_P2;Temp;Humidity;BMP_temperature;BMP_pressure;BME280_temperature;BME280_humidity;BME280_pressure;Samples;Min_cycle;Max_cycle;Signal;HPM_P1;HPM_P2
2021/12/10 00:02:13;;;;;;;13.20;3.78;;;3.70;99.90;;;;;;5011579;28;20562;-62
2021/12/10 00:04:42;;;;;;;12.75;4.10;;;3.60;99.90;;;;;;5012043;28;20807;-63
2021/12/10 00:07:22;;;;;;;18.38;4.13;;;3.60;99.90;;;;;;5011084;28;20084;-62
2021/12/10 00:09:54;;;;;;;10.63;4.10;;;3.70;99.90;;;;;;5009518;28;20050;-61
2021/12/10 00:12:25;;;;;;;16.33;4.97;;;3.70;99.90;;;;;;5011352;28;20080;-61
2021/12/10 00:14:52;;;;;;;11.07;3.75;;;3.70;99.90;;;;;;5015800;28;20417;-62
2021/12/10 00:17:18;;;;;;;16.45;5.47;;;3.60;99.90;;;;;;5011612;28;20042;-62
2021/12/10 00:19:49;;;;;;;12.75;5.35;;;3.60;99.90;;;;;;5011983;28;20044;-62
2021/12/10 00:22:35;;;;;;;11.07;3.53;;;3.60;99.90;;;;;;5008358;28;20092;-62
2021/12/10 00:25:01;;;;;;;15.85;4.07;;;3.60;99.90;;;;;;5011527;28;20045;-63
2021/12/10 00:27:32;;;;;;;15.00;4.68;;;3.60;99.90;;;;;;5011775;28;20100;-62
2021/12/10 00:30:09;;;;;;;13.45;4.15;;;3.60;99.90;;;;;;5011323;28;20458;-61
2021/12/10 00:32:41;;;;;;;26.00;5.93;;;3.60;99.90;;;;;;5011632;28;20041;-63
2021/12/10 00:35:16;;;;;;;9.02;4.45;;;3.70;99.90;;;;;;5010603;28;20037;-63
2021/12/10 00:37:41;;;;;;;14.07;4.88;;;3.70;99.90;;;;;;5006517;28;20030;-62
2021/12/10 00:40:09;;;;;;;17.08;4.70;;;3.70;99.90;;;;;;5009922;28;20092;-62
2021/12/10 00:42:35;;;;;;;18.88;5.55;;;3.80;99.90;;;;;;5011595;28;20034;-62
2021/12/10 00:45:05;;;;;;;11.25;3.92;;;3.80;99.90;;;;;;5010894;28;20088;-62
2021/12/10 00:47:30;;;;;;;18.67;5.07;;;3.90;99.90;;;;;;5011326;28;20034;-62
2021/12/10 00:49:57;;;;;;;16.58;4.93;;;3.90;99.90;;;;;;5011179;28;20096;-64
2021/12/10 00:52:23;;;;;;;15.18;4.53;;;3.80;99.90;;;;;;5009394;28;20041;-62
2021/12/10 00:54:49;;;;;;;14.80;5.20;;;3.90;99.90;;;;;;5011002;28;20038;-61
2021/12/10 00:57:16;;;;;;;16.23;5.53;;;3.80;99.90;;;;;;5010331;28;20038;-62
2021/12/10 00:59:43;;;;;;;15.85;6.03;;;3.80;99.90;;;;;;5015003;28;20057;-62
2021/12/10 01:02:12;;;;;;;11.48;4.97;;;3.80;99.90;;;;;;5006657;28;20034;-62
2021/12/10 01:04:40;;;;;;;15.85;5.22;;;3.80;99.90;;;;;;5007249;28;20042;-62
2021/12/10 01:07:12;;;;;;;16.67;4.40;;;3.80;99.90;;;;;;5009107;28;20034;-62
2021/12/10 01:09:41;;;;;;;13.48;4.50;;;3.80;99.90;;;;;;5007513;28;20033;-61
2021/12/10 01:12:17;;;;;;;17.88;5.72;;;3.80;99.90;;;;;;5006045;28;20034;-61
2021/12/10 01:15:05;;;;;;;10.25;4.88;;;3.80;99.90;;;;;;5009595;28;20045;-62
2021/12/10 01:28:46;;;;;;;13.80;6.03;;;3.80;99.90;;;;;;5007821;28;20030;-62
2021/12/10 01:31:12;;;;;;;12.73;5.38;;;3.80;99.90;;;;;;5009957;28;20095;-62
2021/12/10 01:33:39;;;;;;;13.25;6.03;;;3.80;99.90;;;;;;5010957;28;20474;-62
2021/12/10 01:36:07;;;;;;;11.65;5.70;;;3.70;99.90;;;;;;5005799;28;20106;-62
2021/12/10 01:38:35;;;;;;;16.00;5.97;;;3.70;99.90;;;;;;5009956;28;20449;-63
2021/12/10 01:41:01;;;;;;;12.52;6.72;;;3.70;99.90;;;;;;5010167;28;20474;-62
2021/12/10 01:43:32;;;;;;;13.35;6.18;;;3.70;99.90;;;;;;5019370;28;20113;-62
2021/12/10 01:46:06;;;;;;;17.90;7.70;;;3.70;99.90;;;;;;5020369;28;20045;-62
2021/12/10 01:48:42;;;;;;;12.88;4.82;;;3.60;99.90;;;;;;5012995;28;20482;-62
2021/12/10 01:51:12;;;;;;;12.75;5.75;;;3.60;99.90;;;;;;5005919;28;20034;-62
2021/12/10 01:53:40;;;;;;;14.98;5.80;;;3.60;99.90;;;;;;5002549;28;20026;-62
2021/12/10 01:56:13;;;;;;;14.38;6.30;;;3.60;99.90;;;;;;5005467;28;20127;-62
2021/12/10 01:58:40;;;;;;;10.35;5.10;;;3.60;99.90;;;;;;5009944;28;20038;-61
2021/12/10 02:01:14;;;;;;;24.75;5.63;;;3.60;99.90;;;;;;5009194;28;20090;-62
2021/12/10 02:03:41;;;;;;;15.20;4.57;;;3.50;99.90;;;;;;5010004;28;20076;-62
2021/12/10 02:06:08;;;;;;;12.43;3.63;;;3.60;99.90;;;;;;5000935;28;20034;-61
2021/12/10 02:08:34;;;;;;;9.65;3.85;;;3.60;99.90;;;;;;5006182;28;20058;-61
2021/12/10 02:11:00;;;;;;;9.02;3.88;;;3.60;99.90;;;;;;5009728;28;20052;-62
2021/12/10 02:13:26;;;;;;;8.27;3.17;;;3.60;99.90;;;;;;5009580;28;20414;-62
2021/12/10 02:15:52;;;;;;;11.35;3.55;;;3.60;99.90;;;;;;5010666;28;20033;-62
2021/12/10 02:18:20;;;;;;;5.85;2.75;;;3.60;99.90;;;;;;5008982;28;20104;-62
2021/12/10 02:21:15;;;;;;;7.28;3.35;;;3.50;99.90;;;;;;5009856;28;20420;-63
2021/12/10 02:23:50;;;;;;;9.90;3.00;;;3.60;99.90;;;;;;5006488;28;20038;-63
2021/12/10 02:26:16;;;;;;;10.32;3.47;;;3.50;99.90;;;;;;5008852;28;20371;-62
2021/12/10 02:28:43;;;;;;;6.93;2.65;;;3.50;99.90;;;;;;5009784;28;20564;-62
2021/12/10 02:31:12;;;;;;;8.05;2.80;;;3.50;99.90;;;;;;5008799;28;20030;-62
2021/12/10 02:33:38;;;;;;;13.85;2.78;;;3.50;99.90;;;;;;5009563;28;20034;-62
2021/12/10 02:36:05;;;;;;;9.30;2.95;;;3.50;99.90;;;;;;5008901;28;20113;-62
2021/12/10 02:38:30;;;;;;;9.70;3.00;;;3.50;99.90;;;;;;5009449;28;20034;-62
2021/12/10 02:40:56;;;;;;;9.82;2.42;;;3.40;99.90;;;;;;5009631;28;20502;-61
2021/12/10 02:43:23;;;;;;;10.98;3.10;;;3.50;99.90;;;;;;5009601;28;22890;-62
2021/12/10 02:45:53;;;;;;;7.03;2.85;;;3.50;99.90;;;;;;5007633;28;20033;-62
2021/12/10 02:48:19;;;;;;;7.88;2.83;;;3.40;99.90;;;;;;5008270;28;20487;-62
2021/12/10 02:50:46;;;;;;;7.00;2.50;;;3.40;99.90;;;;;;5014829;28;20060;-62
2021/12/10 02:53:14;;;;;;;12.93;3.15;;;3.40;99.90;;;;;;5013854;28;20490;-62
2021/12/10 02:55:40;;;;;;;9.90;2.72;;;3.40;99.90;;;;;;5010894;28;20069;-62
2021/12/10 02:58:10;;;;;;;9.70;2.70;;;3.40;99.90;;;;;;5007886;28;20054;-62
2021/12/10 03:00:49;;;;;;;9.60;2.47;;;3.40;99.90;;;;;;5006208;28;20383;-63
2021/12/10 03:03:15;;;;;;;9.27;2.05;;;3.40;99.90;;;;;;5008381;28;20151;-63
2021/12/10 03:05:41;;;;;;;7.32;2.10;;;3.50;99.90;;;;;;5008865;28;20441;-62
2021/12/10 03:08:07;;;;;;;5.70;2.30;;;3.50;99.90;;;;;;5011840;28;20041;-62
2021/12/10 03:10:33;;;;;;;11.05;2.75;;;3.50;99.90;;;;;;5008959;28;20033;-62
2021/12/10 03:12:59;;;;;;;10.13;3.38;;;3.60;99.90;;;;;;5008486;28;20121;-62
2021/12/10 03:15:27;;;;;;;17.13;3.72;;;3.60;99.90;;;;;;5010680;28;20493;-62
2021/12/10 03:17:53;;;;;;;10.68;3.00;;;3.60;99.90;;;;;;5009074;28;20478;-62
2021/12/10 03:20:23;;;;;;;11.52;2.55;;;3.60;99.90;;;;;;5008141;28;20042;-61
2021/12/10 03:22:49;;;;;;;14.50;2.40;;;3.70;99.90;;;;;;5008794;28;20121;-62
2021/12/10 03:25:16;;;;;;;12.25;3.60;;;3.60;99.90;;;;;;5010509;28;20130;-62
2021/12/10 03:27:43;;;;;;;10.82;2.60;;;3.70;99.90;;;;;;5008992;28;20472;-61
2021/12/10 03:30:13;;;;;;;8.57;2.53;;;3.70;99.90;;;;;;5007479;28;20030;-62
2021/12/10 03:32:39;;;;;;;11.00;2.10;;;3.70;99.90;;;;;;5008823;28;20032;-61
2021/12/10 03:35:13;;;;;;;7.07;2.75;;;3.80;99.90;;;;;;5007696;28;20486;-62
2021/12/10 03:37:41;;;;;;;10.07;2.58;;;3.70;99.90;;;;;;5008658;28;20034;-62
2021/12/10 03:40:10;;;;;;;6.45;2.20;;;3.70;99.90;;;;;;5004202;28;20065;-62
2021/12/10 03:42:36;;;;;;;9.35;2.13;;;3.70;99.90;;;;;;5008926;28;20034;-64
2021/12/10 03:45:03;;;;;;;10.00;2.38;;;3.70;99.90;;;;;;5008228;28;20041;-63
2021/12/10 03:47:29;;;;;;;8.38;2.03;;;3.70;99.90;;;;;;5004423;28;20107;-62
2021/12/10 03:49:55;;;;;;;10.13;2.53;;;3.70;99.90;;;;;;5008517;28;20061;-62
2021/12/10 03:52:20;;;;;;;12.35;2.40;;;3.70;99.90;;;;;;5007692;28;20670;-61
2021/12/10 03:54:47;;;;;;;11.23;2.70;;;3.70;99.90;;;;;;5008516;28;20041;-61
2021/12/10 03:57:13;;;;;;;5.50;1.98;;;3.80;99.90;;;;;;5007252;28;20038;-61
2021/12/10 03:59:39;;;;;;;8.38;2.13;;;3.70;99.90;;;;;;5008383;28;20109;-62
2021/12/10 04:02:08;;;;;;;7.03;2.22;;;3.70;99.90;;;;;;5007786;28;20128;-63
2021/12/10 04:04:47;;;;;;;8.65;1.80;;;3.70;99.90;;;;;;5008210;28;20054;-62
2021/12/10 04:07:17;;;;;;;4.97;1.63;;;3.70;99.90;;;;;;5007214;28;20498;-63
2021/12/10 04:09:43;;;;;;;7.67;1.77;;;3.80;99.90;;;;;;5008436;28;20044;-61
2021/12/10 04:12:10;;;;;;;4.20;1.65;;;3.80;99.90;;;;;;5007504;28;20300;-61
2021/12/10 04:14:37;;;;;;;4.85;1.35;;;3.90;99.90;;;;;;5008622;28;20563;-62
2021/12/10 04:17:04;;;;;;;5.68;1.30;;;3.80;99.90;;;;;;5005934;28;20033;-63
2021/12/10 04:19:35;;;;;;;9.90;2.70;;;3.90;99.90;;;;;;5008186;28;20168;-61
2021/12/10 04:22:03;;;;;;;10.02;1.70;;;3.90;99.90;;;;;;5004616;28;20030;-62
2021/12/10 04:24:33;;;;;;;4.97;1.25;;;3.90;99.90;;;;;;5011495;28;20034;-62
2021/12/10 04:27:01;;;;;;;3.58;1.35;;;4.00;99.90;;;;;;5004309;28;20508;-61
2021/12/10 04:29:27;;;;;;;6.80;1.38;;;4.00;99.90;;;;;;5004077;28;20129;-63
2021/12/10 04:31:56;;;;;;;3.88;1.10;;;4.00;99.90;;;;;;5008104;28;20128;-62
2021/12/10 04:34:22;;;;;;;4.70;1.40;;;4.00;99.90;;;;;;5007271;28;20129;-62
2021/12/10 04:36:54;;;;;;;4.47;1.17;;;4.00;99.90;;;;;;5007927;28;20030;-63
2021/12/10 04:39:20;;;;;;;6.25;1.63;;;3.90;99.90;;;;;;5007459;28;20041;-62
2021/12/10 04:41:45;;;;;;;3.75;1.10;;;3.90;99.90;;;;;;5009746;28;20113;-62
2021/12/10 04:44:11;;;;;;;8.63;1.83;;;3.80;99.90;;;;;;5010362;28;20041;-62
2021/12/10 04:46:37;;;;;;;4.90;1.10;;;3.70;99.90;;;;;;5011182;28;20049;-63
2021/12/10 04:49:12;;;;;;;6.18;1.50;;;3.70;99.90;;;;;;5010765;28;20034;-66
2021/12/10 04:51:40;;;;;;;7.25;1.27;;;3.60;99.90;;;;;;5009898;28;20040;-61
2021/12/10 04:54:07;;;;;;;6.78;1.60;;;3.60;99.90;;;;;;5010090;28;20061;-62
2021/12/10 04:56:34;;;;;;;3.40;1.17;;;3.60;99.90;;;;;;5011102;28;20653;-62
2021/12/10 04:59:03;;;;;;;5.90;1.60;;;3.50;99.90;;;;;;5011872;28;20048;-61
2021/12/10 05:01:29;;;;;;;7.38;1.50;;;3.50;99.90;;;;;;5014102;28;20034;-62
2021/12/10 05:03:55;;;;;;;3.50;1.30;;;3.50;99.90;;;;;;5011415;28;20053;-62
2021/12/10 05:06:21;;;;;;;8.32;1.67;;;3.50;99.90;;;;;;5010142;28;20058;-62
2021/12/10 05:08:47;;;;;;;10.02;2.10;;;3.50;99.90;;;;;;5009615;28;20125;-62
2021/12/10 05:11:12;;;;;;;5.43;1.60;;;3.50;99.90;;;;;;5009865;28;20064;-62
2021/12/10 05:13:41;;;;;;;8.68;1.63;;;3.50;99.90;;;;;;5011249;28;20699;-60
2021/12/10 05:16:07;;;;;;;8.77;2.55;;;3.50;99.90;;;;;;5011196;28;20034;-62
2021/12/10 05:18:38;;;;;;;3.20;1.52;;;3.50;99.90;;;;;;5009537;28;20034;-62
2021/12/10 05:21:08;;;;;;;6.68;1.83;;;3.40;99.90;;;;;;5010126;28;20038;-63
2021/12/10 05:23:34;;;;;;;5.97;1.33;;;3.40;99.90;;;;;;5011030;28;20377;-62
2021/12/10 05:26:00;;;;;;;3.85;1.30;;;3.40;99.90;;;;;;5009762;28;20034;-62
2021/12/10 05:28:27;;;;;;;6.65;1.75;;;3.40;99.90;;;;;;5010736;28;20375;-62
2021/12/10 05:30:55;;;;;;;6.60;1.55;;;3.50;99.90;;;;;;5007125;28;20058;-62
2021/12/10 05:33:23;;;;;;;4.53;2.10;;;3.50;99.90;;;;;;5010437;28;20034;-61
2021/12/10 05:35:50;;;;;;;4.60;1.52;;;3.40;99.90;;;;;;5010202;28;20041;-62
2021/12/10 05:38:17;;;;;;;6.55;1.58;;;3.40;99.90;;;;;;5009702;28;20117;-63
2021/12/10 05:40:44;;;;;;;5.72;2.05;;;3.40;99.90;;;;;;5010580;28;20030;-63
2021/12/10 05:43:11;;;;;;;7.75;1.40;;;3.40;99.90;;;;;;5009949;28;20042;-61
2021/12/10 05:45:36;;;;;;;3.83;1.85;;;3.40;99.90;;;;;;5010151;28;20474;-62
2021/12/10 05:48:03;;;;;;;9.25;1.70;;;3.40;99.90;;;;;;5010117;28;20041;-61
2021/12/10 05:50:30;;;;;;;10.45;1.55;;;3.40;99.90;;;;;;5010242;28;20034;-61
2021/12/10 05:52:56;;;;;;;3.00;1.10;;;3.50;99.90;;;;;;5009002;28;20033;-61
2021/12/10 05:55:23;;;;;;;6.45;1.30;;;3.40;99.90;;;;;;5009159;28;20034;-61
2021/12/10 05:57:49;;;;;;;5.32;1.45;;;3.40;99.90;;;;;;5008756;28;20022;-62
2021/12/10 06:00:22;;;;;;;10.50;1.77;;;3.40;99.90;;;;;;5009908;28;20124;-61
2021/12/10 06:02:48;;;;;;;4.15;1.38;;;3.40;99.90;;;;;;5010009;28;20498;-62
2021/12/10 06:05:14;;;;;;;13.98;2.05;;;3.40;99.90;;;;;;5009072;28;20037;-62
2021/12/10 06:07:40;;;;;;;8.13;1.33;;;3.50;99.90;;;;;;5008240;28;20116;-62
2021/12/10 06:10:09;;;;;;;5.22;1.10;;;3.50;99.90;;;;;;5008966;28;20044;-62
2021/12/10 06:12:36;;;;;;;5.97;1.40;;;3.50;99.90;;;;;;5009977;28;20034;-61
2021/12/10 06:15:02;;;;;;;8.88;1.63;;;3.50;99.90;;;;;;5010336;28;20776;-62
2021/12/10 06:17:28;;;;;;;8.65;1.70;;;3.50;99.90;;;;;;5009205;28;20037;-61
2021/12/10 06:19:54;;;;;;;4.15;1.40;;;3.40;99.90;;;;;;5009905;28;20041;-62
2021/12/10 06:57:15;;;;;;;4.85;1.45;;;3.70;99.90;;;;;;4986577;28;20081;-62
2021/12/10 06:59:41;;;;;;;4.57;1.17;;;3.70;99.90;;;;;;5001554;28;20648;-62
2021/12/10 07:02:07;;;;;;;3.10;0.90;;;3.70;99.90;;;;;;5004632;28;20125;-62
2021/12/10 07:04:34;;;;;;;9.57;1.13;;;3.80;99.90;;;;;;5006938;28;20064;-62
2021/12/10 07:06:59;;;;;;;8.35;1.20;;;3.80;99.90;;;;;;5007304;28;20133;-62
2021/12/10 07:09:25;;;;;;;2.72;0.95;;;3.80;99.90;;;;;;5006469;28;20607;-60
2021/12/10 07:11:54;;;;;;;5.43;1.33;;;3.80;99.90;;;;;;5007984;28;20056;-61
2021/12/10 07:14:20;;;;;;;3.65;0.70;;;3.80;99.90;;;;;;5006266;28;20033;-62
2021/12/10 07:16:47;;;;;;;5.05;1.77;;;3.80;99.90;;;;;;5003768;28;20030;-61
2021/12/10 07:56:01;;;;;;;4.47;1.27;;;3.90;99.90;;;;;;4881758;29;20477;-65
2021/12/10 07:58:29;;;;;;;4.78;0.80;;;3.90;99.90;;;;;;4865396;29;20531;-62
2021/12/10 08:00:55;;;;;;;8.18;1.63;;;3.90;99.90;;;;;;4874150;29;20029;-63
2021/12/10 08:03:21;;;;;;;10.00;1.30;;;3.90;99.90;;;;;;4884464;29;20089;-63
2021/12/10 08:05:48;;;;;;;4.07;1.30;;;3.90;99.90;;;;;;4865559;29;20052;-62
2021/12/10 08:08:14;;;;;;;8.38;1.08;;;4.00;99.90;;;;;;4872341;29;20051;-62
2021/12/10 08:10:42;;;;;;;6.80;1.13;;;3.90;99.90;;;;;;4877012;29;20544;-63
2021/12/10 08:13:08;;;;;;;6.55;1.10;;;3.90;99.90;;;;;;4869683;29;20052;-62
2021/12/10 08:15:35;;;;;;;8.43;1.65;;;3.90;99.90;;;;;;4874767;29;20647;-63
2021/12/10 08:18:01;;;;;;;7.25;1.20;;;3.90;99.90;;;;;;4871585;29;20501;-63
2021/12/10 08:20:27;;;;;;;6.38;1.33;;;4.00;99.90;;;;;;4874481;29;20029;-63
2021/12/10 08:22:54;;;;;;;12.15;2.03;;;4.00;99.90;;;;;;4870241;29;20098;-63
2021/12/10 08:25:22;;;;;;;5.90;0.77;;;4.00;99.90;;;;;;4895082;29;20044;-63
2021/12/10 08:27:48;;;;;;;8.98;0.93;;;4.00;99.90;;;;;;4875500;29;20041;-63
2021/12/10 08:30:18;;;;;;;7.00;1.25;;;4.00;99.90;;;;;;4874006;29;20132;-63
2021/12/10 08:32:45;;;;;;;4.75;1.10;;;4.00;99.90;;;;;;4873497;29;20048;-65
2021/12/10 08:35:14;;;;;;;8.60;1.35;;;4.10;99.90;;;;;;4874152;29;20088;-63
2021/12/10 08:37:42;;;;;;;6.75;2.30;;;4.10;99.90;;;;;;4878070;29;20538;-63
2021/12/10 08:40:11;;;;;;;4.10;1.15;;;4.10;99.90;;;;;;4873780;29;20037;-63
2021/12/10 08:42:36;;;;;;;5.43;1.08;;;4.20;99.90;;;;;;4870401;29;20099;-62
2021/12/10 08:45:03;;;;;;;4.93;1.27;;;4.20;99.90;;;;;;4876061;29;20426;-63
2021/12/10 08:47:29;;;;;;;6.75;1.58;;;4.10;99.90;;;;;;4888602;29;20032;-62
2021/12/10 08:49:56;;;;;;;5.57;1.48;;;4.10;99.90;;;;;;4872209;29;20040;-63
2021/12/10 08:52:21;;;;;;;6.97;1.50;;;4.10;99.90;;;;;;4872353;29;20041;-63
2021/12/10 08:54:47;;;;;;;4.72;1.20;;;4.10;99.90;;;;;;4877407;29;20037;-64
2021/12/10 08:57:13;;;;;;;6.03;1.45;;;4.20;99.90;;;;;;4893698;29;20610;-62
2021/12/10 08:59:40;;;;;;;4.28;1.30;;;4.20;99.90;;;;;;4900857;29;20036;-63
2021/12/10 09:02:09;;;;;;;4.75;0.90;;;4.20;99.90;;;;;;4925297;28;20115;-63
2021/12/10 09:04:36;;;;;;;7.13;1.10;;;4.20;99.90;;;;;;4918664;29;20608;-63
2021/12/10 09:07:14;;;;;;;10.43;1.20;;;4.30;99.90;;;;;;4902344;29;20130;-63
2021/12/10 09:09:42;;;;;;;5.07;1.52;;;4.20;99.90;;;;;;4902462;29;20050;-63
2021/12/10 09:12:13;;;;;;;10.05;1.92;;;4.40;99.90;;;;;;4924655;28;20515;-62
2021/12/10 09:14:48;;;;;;;5.13;1.50;;;4.40;99.90;;;;;;4904360;29;20051;-62
2021/12/10 09:17:19;;;;;;;5.45;1.70;;;4.40;99.90;;;;;;4902366;29;20084;-65
2021/12/10 09:19:46;;;;;;;4.25;1.30;;;4.40;99.90;;;;;;4901138;29;20032;-62
2021/12/10 09:22:11;;;;;;;11.27;1.98;;;4.50;99.90;;;;;;4901003;29;20561;-63
2021/12/10 09:24:41;;;;;;;9.05;1.27;;;4.50;99.90;;;;;;4911590;29;20035;-63
2021/12/10 09:27:07;;;;;;;10.07;1.92;;;4.50;99.90;;;;;;4909942;29;20048;-64
2021/12/10 09:29:39;;;;;;;7.50;1.90;;;4.50;99.90;;;;;;4911576;29;20091;-64
2021/12/10 09:32:08;;;;;;;7.38;2.00;;;4.40;99.90;;;;;;4910364;28;20051;-64
2021/12/10 09:34:34;;;;;;;6.93;1.20;;;4.40;99.90;;;;;;4913291;29;20040;-64
2021/12/10 09:37:00;;;;;;;6.45;2.35;;;4.30;99.90;;;;;;4913121;29;20047;-64
2021/12/10 09:39:28;;;;;;;7.32;2.13;;;4.30;99.90;;;;;;4913453;29;20384;-64
2021/12/10 09:41:54;;;;;;;7.85;1.85;;;4.40;99.90;;;;;;4914132;29;20488;-64
2021/12/10 09:44:20;;;;;;;8.95;1.75;;;4.40;99.90;;;;;;4913023;29;20119;-63
2021/12/10 09:46:47;;;;;;;14.20;3.33;;;4.40;99.90;;;;;;4912641;29;20048;-63
2021/12/10 09:49:13;;;;;;;6.35;1.85;;;4.30;99.90;;;;;;4912691;29;20032;-63
2021/12/10 09:51:47;;;;;;;4.50;1.35;;;4.40;99.90;;;;;;4913427;29;20036;-63
2021/12/10 09:54:16;;;;;;;5.43;1.50;;;4.40;99.90;;;;;;4912392;29;20527;-62
2021/12/10 09:57:14;;;;;;;10.15;2.33;;;4.40;99.90;;;;;;4949618;28;20152;-63
2021/12/10 09:59:43;;;;;;;6.95;1.80;;;4.40;99.90;;;;;;4960063;28;20031;-63
2021/12/10 10:02:09;;;;;;;6.40;2.08;;;4.40;99.90;;;;;;4988955;28;20054;-63
2021/12/10 10:04:37;;;;;;;14.18;2.35;;;4.40;99.90;;;;;;4990403;28;20034;-62
2021/12/10 10:07:08;;;;;;;7.93;2.33;;;4.40;99.90;;;;;;4989348;28;20426;-62
2021/12/10 10:09:34;;;;;;;12.02;2.13;;;4.40;99.90;;;;;;4986592;28;20030;-65
2021/12/10 10:12:08;;;;;;;6.78;2.35;;;4.40;99.90;;;;;;4989430;28;20493;-65
2021/12/10 10:14:34;;;;;;;9.43;1.95;;;4.40;99.90;;;;;;4986651;28;20042;-63
2021/12/10 10:17:00;;;;;;;7.57;2.75;;;4.50;99.90;;;;;;4989874;28;20122;-63
2021/12/10 10:19:27;;;;;;;10.48;2.10;;;4.50;99.90;;;;;;4988829;28;20030;-63
2021/12/10 10:21:55;;;;;;;3.45;1.55;;;4.50;99.90;;;;;;4989744;28;20041;-65
2021/12/10 10:24:23;;;;;;;12.20;2.72;;;4.50;99.90;;;;;;4987152;28;20026;-65
2021/12/10 10:26:55;;;;;;;6.53;1.77;;;4.50;99.90;;;;;;4989803;28;20086;-63
2021/12/10 10:29:24;;;;;;;10.43;2.00;;;4.60;99.90;;;;;;4986641;28;20088;-64
2021/12/10 10:31:58;;;;;;;9.17;2.03;;;4.60;99.90;;;;;;4989451;28;20122;-63
2021/12/10 10:34:26;;;;;;;8.20;1.92;;;4.60;99.90;;;;;;4985253;28;20769;-63
2021/12/10 10:36:53;;;;;;;7.15;1.48;;;4.70;99.90;;;;;;4988488;28;20126;-63
2021/12/10 10:39:30;;;;;;;5.03;1.83;;;4.70;99.90;;;;;;4988307;28;20504;-63
2021/12/10 10:41:56;;;;;;;20.88;3.00;;;4.80;99.90;;;;;;4989215;28;20038;-62
2021/12/10 10:44:24;;;;;;;8.52;1.60;;;4.80;99.90;;;;;;4986065;28;20046;-63
2021/12/10 10:46:53;;;;;;;6.97;2.33;;;4.80;99.90;;;;;;4989604;28;20042;-63
2021/12/10 10:49:42;;;;;;;8.43;1.85;;;4.80;99.90;;;;;;4988063;28;20026;-63
2021/12/10 10:52:31;;;;;;;8.40;2.50;;;4.80;99.90;;;;;;4986595;28;20137;-66
2021/12/10 10:55:16;;;;;;;9.52;1.55;;;4.80;99.90;;;;;;4973029;28;20128;-63
2021/12/10 10:58:05;;;;;;;5.90;2.08;;;4.90;99.90;;;;;;4961361;28;20035;-63
2021/12/10 11:00:50;;;;;;;9.18;2.33;;;4.90;99.90;;;;;;4984919;28;20058;-63
2021/12/10 11:03:20;;;;;;;3.85;1.73;;;5.00;99.90;;;;;;4962406;28;20028;-63
2021/12/10 11:05:55;;;;;;;12.43;2.00;;;5.00;99.90;;;;;;4963508;28;20487;-63
2021/12/10 11:08:38;;;;;;;8.07;1.55;;;5.00;99.90;;;;;;4964604;28;20062;-63
2021/12/10 11:11:29;;;;;;;3.25;1.48;;;5.10;99.90;;;;;;4966542;28;20031;-63
2021/12/10 11:14:01;;;;;;;7.68;1.90;;;5.10;99.90;;;;;;4960354;28;20499;-62
2021/12/10 11:16:29;;;;;;;5.35;1.45;;;5.20;99.90;;;;;;4961997;28;20038;-65
2021/12/10 11:19:01;;;;;;;6.90;1.92;;;5.20;99.90;;;;;;4954726;28;20038;-65
2021/12/10 11:21:37;;;;;;;6.30;1.90;;;5.20;99.90;;;;;;4957865;28;20034;-63
2021/12/10 11:24:17;;;;;;;6.68;1.80;;;5.20;99.90;;;;;;4955315;28;20126;-65
2021/12/10 11:26:58;;;;;;;10.93;1.50;;;5.20;99.90;;;;;;4955246;28;20581;-62
2021/12/10 11:29:52;;;;;;;7.22;1.70;;;5.30;99.90;;;;;;4960407;28;20489;-63
2021/12/10 11:32:36;;;;;;;9.45;2.53;;;5.30;99.90;;;;;;4963302;28;20031;-63
2021/12/10 11:35:05;;;;;;;5.72;1.50;;;5.30;99.90;;;;;;4961624;28;20126;-64
2021/12/10 11:38:01;;;;;;;7.18;2.35;;;5.40;99.90;;;;;;4961926;28;20097;-63
2021/12/10 11:40:31;;;;;;;10.00;1.55;;;5.40;99.90;;;;;;4964418;28;20379;-64
2021/12/10 11:42:58;;;;;;;7.15;1.20;;;5.40;99.90;;;;;;4966597;28;20082;-63
2021/12/10 11:45:41;;;;;;;7.38;1.63;;;5.40;99.90;;;;;;4956792;28;20035;-63
2021/12/10 11:48:12;;;;;;;10.38;1.85;;;5.40;99.90;;;;;;4964080;28;20090;-63
2021/12/10 11:50:55;;;;;;;7.38;2.42;;;5.40;99.90;;;;;;4963799;28;20398;-63
2021/12/10 11:53:21;;;;;;;8.23;1.80;;;5.40;99.90;;;;;;4964865;28;20391;-63
2021/12/10 11:55:56;;;;;;;11.68;1.98;;;5.40;99.90;;;;;;4962099;28;20122;-63
2021/12/10 11:58:21;;;;;;;8.05;1.77;;;5.40;99.90;;;;;;4927580;28;20060;-64
2021/12/10 12:00:48;;;;;;;3.58;1.83;;;5.40;99.90;;;;;;4923633;28;20044;-63
2021/12/10 12:03:14;;;;;;;8.00;1.85;;;5.40;99.90;;;;;;4921474;28;20039;-63
2021/12/10 12:05:43;;;;;;;7.70;2.20;;;5.40;99.90;;;;;;4927257;29;20028;-65
2021/12/10 12:08:14;;;;;;;5.15;2.13;;;5.40;99.90;;;;;;4940501;28;20068;-65
2021/12/10 12:10:43;;;;;;;6.75;2.22;;;5.30;99.90;;;;;;4922675;28;20038;-63
2021/12/10 12:15:47;;;;;;;4.15;1.70;;;5.20;99.90;;;;;;4922680;28;20047;-64
2021/12/10 12:18:26;;;;;;;7.38;1.73;;;5.20;99.90;;;;;;4938956;28;20083;-63
2021/12/10 12:20:54;;;;;;;6.20;2.30;;;5.20;99.90;;;;;;4922558;28;20684;-63
2021/12/10 12:26:17;;;;;;;9.50;2.13;;;5.20;99.90;;;;;;4943984;28;20118;-63
2021/12/10 12:28:47;;;;;;;8.15;2.17;;;5.10;99.90;;;;;;4957180;28;20032;-63
2021/12/10 12:31:16;;;;;;;8.50;2.03;;;5.10;99.90;;;;;;4935522;28;20381;-65
2021/12/10 12:34:14;;;;;;;13.82;3.22;;;5.10;99.90;;;;;;4941228;28;20058;-63
2021/12/10 12:36:52;;;;;;;6.47;1.63;;;5.10;99.90;;;;;;4938727;28;20043;-64
2021/12/10 12:39:58;;;;;;;4.38;1.67;;;5.10;99.90;;;;;;4934972;28;20027;-63
2021/12/10 12:42:44;;;;;;;6.57;1.75;;;5.20;99.90;;;;;;4917370;29;20764;-63
2021/12/10 12:45:14;;;;;;;8.52;2.20;;;5.20;99.90;;;;;;4916438;29;20040;-63
2021/12/10 12:47:42;;;;;;;3.67;2.05;;;5.20;99.90;;;;;;4936767;28;20118;-63
2021/12/10 12:50:26;;;;;;;7.90;1.95;;;5.20;99.90;;;;;;4939212;28;20047;-63
2021/12/10 12:52:56;;;;;;;6.60;1.52;;;5.20;99.90;;;;;;4941146;28;20035;-63
2021/12/10 12:55:59;;;;;;;9.70;1.85;;;5.20;99.90;;;;;;4937689;28;20027;-63
2021/12/10 12:58:30;;;;;;;4.82;1.33;;;5.30;99.90;;;;;;4955512;28;20568;-64
2021/12/10 13:01:12;;;;;;;9.60;1.77;;;5.20;99.90;;;;;;4960005;28;20728;-64
2021/12/10 13:03:48;;;;;;;8.48;1.92;;;5.30;99.90;;;;;;4952330;28;20050;-64
2021/12/10 13:06:16;;;;;;;10.88;2.03;;;5.20;99.90;;;;;;4962615;28;20038;-66
2021/12/10 13:08:52;;;;;;;4.05;1.60;;;5.20;99.90;;;;;;4958033;28;20459;-63
2021/12/10 13:11:27;;;;;;;5.82;1.92;;;5.20;99.90;;;;;;4957265;28;20616;-63
2021/12/10 13:14:13;;;;;;;6.72;1.85;;;5.30;99.90;;;;;;4955480;28;20028;-63
2021/12/10 13:16:45;;;;;;;7.95;2.17;;;5.30;99.90;;;;;;4966353;28;20027;-63
2021/12/10 13:19:16;;;;;;;10.18;3.08;;;5.30;99.90;;;;;;4953331;28;20035;-63
2021/12/10 13:21:46;;;;;;;;;;;5.40;99.90;;;;;;4952916;28;20656;-63
2021/12/10 13:24:13;;;;;;;4.72;1.42;;;5.30;99.90;;;;;;4950922;28;19918;-64
2021/12/10 13:26:39;;;;;;;6.80;1.40;;;5.40;99.90;;;;;;4962290;28;20045;-62
2021/12/10 13:29:05;;;;;;;10.52;1.52;;;5.40;99.90;;;;;;4954251;28;20691;-63
2021/12/10 13:31:30;;;;;;;6.70;2.08;;;5.40;99.90;;;;;;4957027;28;20031;-63
2021/12/10 13:33:57;;;;;;;18.27;1.40;;;5.30;99.90;;;;;;4956017;28;20054;-65
2021/12/10 13:36:23;;;;;;;6.18;1.50;;;5.30;99.90;;;;;;4959998;28;20770;-63
2021/12/10 13:38:51;;;;;;;4.63;1.48;;;5.20;99.90;;;;;;4954215;28;20523;-63
2021/12/10 13:41:21;;;;;;;5.93;2.50;;;5.30;99.90;;;;;;4960774;28;20066;-63
2021/12/10 13:44:04;;;;;;;6.00;1.30;;;5.20;99.90;;;;;;4946181;28;20043;-63
2021/12/10 13:46:34;;;;;;;11.68;1.80;;;5.10;99.90;;;;;;4949923;28;20042;-63
2021/12/10 13:49:03;;;;;;;12.77;2.10;;;5.10;99.90;;;;;;4954303;28;20039;-63
2021/12/10 13:51:34;;;;;;;5.47;1.88;;;5.00;99.90;;;;;;4953856;28;20531;-64
2021/12/10 13:54:23;;;;;;;4.88;1.50;;;5.00;99.90;;;;;;4952978;28;20039;-63
2021/12/10 13:57:02;;;;;;;6.40;2.75;;;5.00;99.90;;;;;;4959707;28;20043;-63
2021/12/10 13:59:30;;;;;;;5.72;2.10;;;5.00;99.90;;;;;;4945804;28;20086;-63
2021/12/10 14:02:00;;;;;;;13.70;1.92;;;5.00;99.90;;;;;;4949132;28;20039;-63
2021/12/10 14:04:25;;;;;;;6.50;2.05;;;4.90;99.90;;;;;;4958538;28;20087;-63
2021/12/10 14:07:05;;;;;;;7.70;2.05;;;4.90;99.90;;;;;;4951391;28;20465;-65
2021/12/10 14:12:18;;;;;;;9.35;2.50;;;5.00;99.90;;;;;;4958501;28;20035;-63
2021/12/10 14:14:48;;;;;;;10.25;1.40;;;5.00;99.90;;;;;;4953874;28;20039;-63
2021/12/10 14:17:22;;;;;;;7.22;2.67;;;5.00;99.90;;;;;;4946722;28;20450;-63
2021/12/10 14:19:51;;;;;;;7.65;1.73;;;5.00;99.90;;;;;;4955613;28;20039;-63
2021/12/10 14:22:48;;;;;;;13.90;2.97;;;5.00;99.90;;;;;;4958058;28;20042;-64
2021/12/10 14:25:22;;;;;;;8.65;2.17;;;5.00;99.90;;;;;;4956506;28;20509;-65
2021/12/10 14:28:08;;;;;;;5.43;1.60;;;5.00;99.90;;;;;;4945114;28;20046;-64
2021/12/10 14:30:53;;;;;;;6.65;1.75;;;5.00;99.90;;;;;;4960643;28;20066;-64
2021/12/10 14:33:27;;;;;;;5.05;1.60;;;5.00;99.90;;;;;;4955910;28;20027;-64
2021/12/10 14:36:09;;;;;;;8.43;2.47;;;4.90;99.90;;;;;;4957694;28;20037;-65
2021/12/10 14:38:46;;;;;;;5.95;1.40;;;5.00;99.90;;;;;;4957539;28;20043;-63
2021/12/10 14:41:32;;;;;;;6.05;1.60;;;4.90;99.90;;;;;;4954822;28;20027;-63
2021/12/10 14:44:19;;;;;;;6.90;1.83;;;4.90;99.90;;;;;;4953434;28;20051;-63